Terminal Aerodrome Forecast
Issued by NWS

Home | Current Version | Previous Version | Text Only | Print | Product List | Glossary On
Versions: 1 2 3 4 5 6 7 8 9 10 11 12 13 14 15 16 17 18
000
FTUS43 KILX 252337
TAFBMI
TAF
KBMI 252337Z 2600/2624 24006KT P6SM VCTS SCT035CB BKN150
     FM260200 36004KT P6SM BKN090
     FM261000 05004KT 5SM BR SCT015 BKN040
     FM261400 07004KT P6SM BKN040=

USA.gov is the U.S. government's official web portal to all federal, state and local government web resources and services.